CAJ7 weather

Cayley A J Flying Ranch Airport
Cayley, Alberta, Canada

Public forecast

Using degrees Celsius for public forecast. Weather courtesy of forecast.io.

METAR (pilot weather report)

Closest report is Calgary International Airport, 41.2 nm (76.2 km) NNW. Retrieved 2019/06/15 19:00 UTC (54 minutes ago):

CYYC 151900Z 36011G21KT 310V040 15SM SCT045 SCT080 SCT200 19/08 A3004 RMK CU3AC1CI1 AC TR CI TR DIST SH SW - W TCU TOP SLP177 DENSITY ALT 4800FT

TAF (pilot weather forecast)

Closest forecast is Calgary International Airport, 41.2 nm (76.2 km) NNW. Retrieved 2019/06/15 18:39 UTC (1 hour ago):

TAF CYYC 151738Z 1518/1618 35008KT P6SM SCT070 TEMPO 1521/1603 P6SM -SHRA BKN070 PROB30 1522/1603 VRB15G25KT 5SM TSRA BKN050CB FM160300 01008KT P6SM SCT080 BECMG 1603/1605 28005KT RMK NXT FCST BY 152100Z